Dover, Delaware
Current Conditions -  °F | °C
As of 2:58 PM on Thursday 30 Oct 2014 (Local Time) from KDOV Reporting Station
Overcast Overcast  
Wind Chill: 16°   Ceiling: 4700
Heat Index: 16°   Visibility: 10mi
Dew Point:   Wind: 10mph
Humidity: 48%   Direction: 330°NNW
Pressure: 29.97"   Gusts: NA
Location:  39.16°N, 75.52°W
Report Text: KDOV 301858Z AUTO 33009KT 10SM OVC047 16/05 A2997 RMK AO2 SLP152 T01580047
Loading
Personal Weather Stations






























Interactive Weather Map
Tropical Storm Tracking
New forecast layout! Learn more

10-Day Weather Forecast

Advertisements
Track Severe Weather on mobile